sensor_id;sensor_type;location;lat;lon;timestamp;temperature;humidity
23827;DHT22;12094;50.822;4.376;2024-03-07T00:01:56;8.40;99.90
23827;DHT22;12094;50.822;4.376;2024-03-07T00:04:23;8.30;99.90
23827;DHT22;12094;50.822;4.376;2024-03-07T00:06:52;8.20;99.90
23827;DHT22;12094;50.822;4.376;2024-03-07T00:09:19;8.10;99.90
23827;DHT22;12094;50.822;4.376;2024-03-07T00:11:51;8.20;99.90
23827;DHT22;12094;50.822;4.376;2024-03-07T00:14:19;8.20;99.90
23827;DHT22;12094;50.822;4.376;2024-03-07T00:16:48;8.30;99.90
23827;DHT22;12094;50.822;4.376;2024-03-07T00:19:16;8.20;99.90
23827;DHT22;12094;50.822;4.376;2024-03-07T00:21:46;8.10;99.90
23827;DHT22;12094;50.822;4.376;2024-03-07T00:24:14;8.00;99.90
23827;DHT22;12094;50.822;4.376;2024-03-07T00:26:42;8.00;99.90
23827;DHT22;12094;50.822;4.376;2024-03-07T00:29:09;8.00;99.90
23827;DHT22;12094;50.822;4.376;2024-03-07T00:31:40;8.00;99.90
23827;DHT22;12094;50.822;4.376;2024-03-07T00:34:08;8.00;99.90
23827;DHT22;12094;50.822;4.376;2024-03-07T00:36:43;8.00;99.90
23827;DHT22;12094;50.822;4.376;2024-03-07T00:39:11;8.00;99.90
23827;DHT22;12094;50.822;4.376;2024-03-07T00:41:41;8.00;99.90
23827;DHT22;12094;50.822;4.376;2024-03-07T00:44:09;7.90;99.90
23827;DHT22;12094;50.822;4.376;2024-03-07T00:46:36;7.70;99.90
23827;DHT22;12094;50.822;4.376;2024-03-07T00:49:04;7.70;99.90
23827;DHT22;12094;50.822;4.376;2024-03-07T00:51:33;7.70;99.90
23827;DHT22;12094;50.822;4.376;2024-03-07T00:54:03;7.60;99.90
23827;DHT22;12094;50.822;4.376;2024-03-07T00:59:47;7.40;99.90
23827;DHT22;12094;50.822;4.376;2024-03-07T01:02:15;7.60;99.90
23827;DHT22;12094;50.822;4.376;2024-03-07T01:04:46;7.60;99.90
23827;DHT22;12094;50.822;4.376;2024-03-07T01:07:13;7.70;99.90
23827;DHT22;12094;50.822;4.376;2024-03-07T01:09:40;7.70;99.90
23827;DHT22;12094;50.822;4.376;2024-03-07T01:12:08;7.80;99.90
23827;DHT22;12094;50.822;4.376;2024-03-07T01:17:14;7.70;99.90
23827;DHT22;12094;50.822;4.376;2024-03-07T01:22:37;7.40;99.90
23827;DHT22;12094;50.822;4.376;2024-03-07T01:25:05;7.30;99.90
23827;DHT22;12094;50.822;4.376;2024-03-07T01:27:33;7.40;99.90
23827;DHT22;12094;50.822;4.376;2024-03-07T01:30:01;7.30;99.90
23827;DHT22;12094;50.822;4.376;2024-03-07T01:32:31;7.30;99.90
23827;DHT22;12094;50.822;4.376;2024-03-07T01:34:59;7.30;99.90
23827;DHT22;12094;50.822;4.376;2024-03-07T01:37:27;7.40;99.90
23827;DHT22;12094;50.822;4.376;2024-03-07T01:39:55;7.50;99.90
23827;DHT22;12094;50.822;4.376;2024-03-07T01:42:22;7.50;99.90
23827;DHT22;12094;50.822;4.376;2024-03-07T01:44:49;7.50;99.90
23827;DHT22;12094;50.822;4.376;2024-03-07T01:47:17;7.50;99.90
23827;DHT22;12094;50.822;4.376;2024-03-07T01:49:45;7.50;99.90
23827;DHT22;12094;50.822;4.376;2024-03-07T01:54:43;7.50;99.90
23827;DHT22;12094;50.822;4.376;2024-03-07T01:57:11;7.50;99.90
23827;DHT22;12094;50.822;4.376;2024-03-07T01:59:40;7.40;99.90
23827;DHT22;12094;50.822;4.376;2024-03-07T02:02:08;7.50;99.90
23827;DHT22;12094;50.822;4.376;2024-03-07T02:04:36;7.50;99.90
23827;DHT22;12094;50.822;4.376;2024-03-07T02:07:04;7.30;99.90
23827;DHT22;12094;50.822;4.376;2024-03-07T02:09:31;7.30;99.90
23827;DHT22;12094;50.822;4.376;2024-03-07T02:14:30;7.10;99.90
23827;DHT22;12094;50.822;4.376;2024-03-07T02:16:57;7.00;99.90
23827;DHT22;12094;50.822;4.376;2024-03-07T02:19:25;7.00;99.90
23827;DHT22;12094;50.822;4.376;2024-03-07T02:21:53;6.90;99.90
23827;DHT22;12094;50.822;4.376;2024-03-07T02:24:23;6.80;99.90
23827;DHT22;12094;50.822;4.376;2024-03-07T02:26:50;6.80;99.90
23827;DHT22;12094;50.822;4.376;2024-03-07T02:29:19;6.80;99.90
23827;DHT22;12094;50.822;4.376;2024-03-07T02:31:47;6.80;99.90
23827;DHT22;12094;50.822;4.376;2024-03-07T02:34:16;6.90;99.90
23827;DHT22;12094;50.822;4.376;2024-03-07T02:36:43;7.00;99.90
23827;DHT22;12094;50.822;4.376;2024-03-07T02:39:11;7.00;99.90
23827;DHT22;12094;50.822;4.376;2024-03-07T02:41:39;6.90;99.90
23827;DHT22;12094;50.822;4.376;2024-03-07T02:44:09;7.00;99.90
23827;DHT22;12094;50.822;4.376;2024-03-07T02:46:37;7.00;99.90
23827;DHT22;12094;50.822;4.376;2024-03-07T02:49:05;7.00;99.90
23827;DHT22;12094;50.822;4.376;2024-03-07T02:51:32;7.00;99.90
23827;DHT22;12094;50.822;4.376;2024-03-07T02:53:59;7.00;99.90
23827;DHT22;12094;50.822;4.376;2024-03-07T02:56:27;6.90;99.90
23827;DHT22;12094;50.822;4.376;2024-03-07T02:58:54;7.00;99.90
23827;DHT22;12094;50.822;4.376;2024-03-07T03:01:22;7.00;99.90
23827;DHT22;12094;50.822;4.376;2024-03-07T03:03:49;7.10;99.90
23827;DHT22;12094;50.822;4.376;2024-03-07T03:06:17;7.10;99.90
23827;DHT22;12094;50.822;4.376;2024-03-07T03:08:48;7.00;99.90
23827;DHT22;12094;50.822;4.376;2024-03-07T03:11:16;6.90;99.90
23827;DHT22;12094;50.822;4.376;2024-03-07T03:13:43;6.90;99.90
23827;DHT22;12094;50.822;4.376;2024-03-07T03:16:14;6.90;99.90
23827;DHT22;12094;50.822;4.376;2024-03-07T03:18:42;7.00;99.90
23827;DHT22;12094;50.822;4.376;2024-03-07T03:21:13;7.00;99.90
23827;DHT22;12094;50.822;4.376;2024-03-07T03:23:41;7.00;99.90
23827;DHT22;12094;50.822;4.376;2024-03-07T03:28:38;7.00;99.90
23827;DHT22;12094;50.822;4.376;2024-03-07T03:31:06;6.90;99.90
23827;DHT22;12094;50.822;4.376;2024-03-07T03:33:35;7.00;99.90
23827;DHT22;12094;50.822;4.376;2024-03-07T03:36:03;7.00;99.90
23827;DHT22;12094;50.822;4.376;2024-03-07T03:38:31;7.00;99.90
23827;DHT22;12094;50.822;4.376;2024-03-07T03:41:00;6.90;99.90
23827;DHT22;12094;50.822;4.376;2024-03-07T03:43:28;6.80;99.90
23827;DHT22;12094;50.822;4.376;2024-03-07T03:45:59;6.90;99.90
23827;DHT22;12094;50.822;4.376;2024-03-07T03:48:27;6.90;99.90
23827;DHT22;12094;50.822;4.376;2024-03-07T03:50:54;6.80;99.90
23827;DHT22;12094;50.822;4.376;2024-03-07T03:53:22;6.80;99.90
23827;DHT22;12094;50.822;4.376;2024-03-07T03:55:51;6.80;99.90
23827;DHT22;12094;50.822;4.376;2024-03-07T03:58:20;6.80;99.90
23827;DHT22;12094;50.822;4.376;2024-03-07T04:00:48;6.80;99.90
23827;DHT22;12094;50.822;4.376;2024-03-07T04:03:15;6.80;99.90
23827;DHT22;12094;50.822;4.376;2024-03-07T04:05:42;6.90;99.90
23827;DHT22;12094;50.822;4.376;2024-03-07T04:08:11;6.90;99.90
23827;DHT22;12094;50.822;4.376;2024-03-07T04:10:39;6.90;99.90
23827;DHT22;12094;50.822;4.376;2024-03-07T04:13:06;6.90;99.90
23827;DHT22;12094;50.822;4.376;2024-03-07T04:15:34;6.80;99.90
23827;DHT22;12094;50.822;4.376;2024-03-07T04:20:36;6.60;99.90
23827;DHT22;12094;50.822;4.376;2024-03-07T04:23:04;6.60;99.90
23827;DHT22;12094;50.822;4.376;2024-03-07T04:25:36;6.60;99.90
23827;DHT22;12094;50.822;4.376;2024-03-07T04:28:09;6.50;99.90
23827;DHT22;12094;50.822;4.376;2024-03-07T04:30:38;6.60;99.90
23827;DHT22;12094;50.822;4.376;2024-03-07T04:33:06;6.60;99.90
23827;DHT22;12094;50.822;4.376;2024-03-07T04:35:33;6.50;99.90
23827;DHT22;12094;50.822;4.376;2024-03-07T04:38:00;6.60;99.90
23827;DHT22;12094;50.822;4.376;2024-03-07T04:40:27;6.50;99.90
23827;DHT22;12094;50.822;4.376;2024-03-07T04:42:54;6.50;99.90
23827;DHT22;12094;50.822;4.376;2024-03-07T04:45:21;6.50;99.90
23827;DHT22;12094;50.822;4.376;2024-03-07T04:47:48;6.60;99.90
23827;DHT22;12094;50.822;4.376;2024-03-07T04:50:17;6.60;99.90
23827;DHT22;12094;50.822;4.376;2024-03-07T04:52:47;6.50;99.90
23827;DHT22;12094;50.822;4.376;2024-03-07T04:55:17;6.50;99.90
23827;DHT22;12094;50.822;4.376;2024-03-07T04:57:48;6.50;99.90
23827;DHT22;12094;50.822;4.376;2024-03-07T05:00:20;6.40;99.90
23827;DHT22;12094;50.822;4.376;2024-03-07T05:02:50;6.50;99.90
23827;DHT22;12094;50.822;4.376;2024-03-07T05:05:20;6.40;99.90
23827;DHT22;12094;50.822;4.376;2024-03-07T05:07:55;6.30;99.90
23827;DHT22;12094;50.822;4.376;2024-03-07T05:10:24;6.30;99.90
23827;DHT22;12094;50.822;4.376;2024-03-07T05:12:53;6.30;99.90
23827;DHT22;12094;50.822;4.376;2024-03-07T05:15:21;6.30;99.90
23827;DHT22;12094;50.822;4.376;2024-03-07T05:17:49;6.30;99.90
23827;DHT22;12094;50.822;4.376;2024-03-07T05:20:16;6.30;99.90
23827;DHT22;12094;50.822;4.376;2024-03-07T05:22:43;6.20;99.90
23827;DHT22;12094;50.822;4.376;2024-03-07T05:25:19;6.30;99.90
23827;DHT22;12094;50.822;4.376;2024-03-07T05:27:47;6.30;99.90
23827;DHT22;12094;50.822;4.376;2024-03-07T05:30:17;6.20;99.90
23827;DHT22;12094;50.822;4.376;2024-03-07T05:32:43;6.20;99.90
23827;DHT22;12094;50.822;4.376;2024-03-07T05:38:28;6.20;99.90
23827;DHT22;12094;50.822;4.376;2024-03-07T05:40:55;6.30;99.90
23827;DHT22;12094;50.822;4.376;2024-03-07T05:43:23;6.20;99.90
23827;DHT22;12094;50.822;4.376;2024-03-07T05:48:40;6.20;99.90
23827;DHT22;12094;50.822;4.376;2024-03-07T05:51:10;6.20;99.90
23827;DHT22;12094;50.822;4.376;2024-03-07T05:53:39;6.20;99.90
23827;DHT22;12094;50.822;4.376;2024-03-07T05:56:08;6.20;99.90
23827;DHT22;12094;50.822;4.376;2024-03-07T05:58:40;6.10;99.90
23827;DHT22;12094;50.822;4.376;2024-03-07T06:01:07;6.20;99.90
23827;DHT22;12094;50.822;4.376;2024-03-07T06:03:36;6.20;99.90
23827;DHT22;12094;50.822;4.376;2024-03-07T06:06:05;6.20;99.90
23827;DHT22;12094;50.822;4.376;2024-03-07T06:08:37;6.20;99.90
23827;DHT22;12094;50.822;4.376;2024-03-07T06:11:06;6.20;99.90
23827;DHT22;12094;50.822;4.376;2024-03-07T06:13:33;6.30;99.90
23827;DHT22;12094;50.822;4.376;2024-03-07T06:16:00;6.20;99.90
23827;DHT22;12094;50.822;4.376;2024-03-07T06:18:31;6.20;99.90
23827;DHT22;12094;50.822;4.376;2024-03-07T06:21:00;6.40;99.90
23827;DHT22;12094;50.822;4.376;2024-03-07T06:23:29;6.20;99.90
23827;DHT22;12094;50.822;4.376;2024-03-07T06:25:57;6.30;99.90
23827;DHT22;12094;50.822;4.376;2024-03-07T06:28:26;6.50;99.90
23827;DHT22;12094;50.822;4.376;2024-03-07T06:33:27;6.40;99.90
23827;DHT22;12094;50.822;4.376;2024-03-07T06:36:04;6.40;99.90
23827;DHT22;12094;50.822;4.376;2024-03-07T06:38:34;6.40;99.90
23827;DHT22;12094;50.822;4.376;2024-03-07T06:41:05;6.30;99.90
23827;DHT22;12094;50.822;4.376;2024-03-07T06:43:35;6.30;99.90
23827;DHT22;12094;50.822;4.376;2024-03-07T06:46:05;6.20;99.90
23827;DHT22;12094;50.822;4.376;2024-03-07T06:48:35;6.30;99.90
23827;DHT22;12094;50.822;4.376;2024-03-07T06:51:04;6.20;99.90
23827;DHT22;12094;50.822;4.376;2024-03-07T06:53:33;6.20;99.90
23827;DHT22;12094;50.822;4.376;2024-03-07T06:58:34;6.20;99.90
23827;DHT22;12094;50.822;4.376;2024-03-07T07:01:02;6.30;99.90
23827;DHT22;12094;50.822;4.376;2024-03-07T07:03:33;6.30;99.90
23827;DHT22;12094;50.822;4.376;2024-03-07T07:06:03;6.40;99.90
23827;DHT22;12094;50.822;4.376;2024-03-07T07:08:33;6.40;99.90
23827;DHT22;12094;50.822;4.376;2024-03-07T07:11:00;6.40;99.90
23827;DHT22;12094;50.822;4.376;2024-03-07T07:13:28;6.40;99.90
23827;DHT22;12094;50.822;4.376;2024-03-07T07:15:58;6.40;99.90
23827;DHT22;12094;50.822;4.376;2024-03-07T07:18:27;6.30;99.90
23827;DHT22;12094;50.822;4.376;2024-03-07T07:20:54;6.30;99.90
23827;DHT22;12094;50.822;4.376;2024-03-07T07:23:23;6.20;99.90
23827;DHT22;12094;50.822;4.376;2024-03-07T07:25:53;6.30;99.90
23827;DHT22;12094;50.822;4.376;2024-03-07T07:28:27;6.40;99.90
23827;DHT22;12094;50.822;4.376;2024-03-07T07:30:55;6.50;99.90
23827;DHT22;12094;50.822;4.376;2024-03-07T07:33:25;6.40;99.90
23827;DHT22;12094;50.822;4.376;2024-03-07T07:35:53;6.40;99.90
23827;DHT22;12094;50.822;4.376;2024-03-07T07:38:20;6.50;99.90
23827;DHT22;12094;50.822;4.376;2024-03-07T07:40:48;6.50;99.90
23827;DHT22;12094;50.822;4.376;2024-03-07T07:43:18;6.70;99.90
23827;DHT22;12094;50.822;4.376;2024-03-07T07:46:01;6.60;99.90
23827;DHT22;12094;50.822;4.376;2024-03-07T07:48:28;6.70;99.90
23827;DHT22;12094;50.822;4.376;2024-03-07T07:50:57;6.70;99.90
23827;DHT22;12094;50.822;4.376;2024-03-07T07:53:27;6.60;99.90
23827;DHT22;12094;50.822;4.376;2024-03-07T07:55:56;6.60;99.90
23827;DHT22;12094;50.822;4.376;2024-03-07T07:58:23;6.60;99.90
23827;DHT22;12094;50.822;4.376;2024-03-07T08:03:20;6.70;99.90
23827;DHT22;12094;50.822;4.376;2024-03-07T08:05:49;6.70;99.90
23827;DHT22;12094;50.822;4.376;2024-03-07T08:08:18;6.70;99.90
23827;DHT22;12094;50.822;4.376;2024-03-07T08:10:47;6.60;99.90
23827;DHT22;12094;50.822;4.376;2024-03-07T08:13:17;6.70;99.90
23827;DHT22;12094;50.822;4.376;2024-03-07T08:15:46;6.80;99.90
23827;DHT22;12094;50.822;4.376;2024-03-07T08:18:14;6.90;99.90
23827;DHT22;12094;50.822;4.376;2024-03-07T08:20:42;7.00;99.90
23827;DHT22;12094;50.822;4.376;2024-03-07T08:23:11;7.00;99.90
23827;DHT22;12094;50.822;4.376;2024-03-07T08:25:45;7.00;99.90
23827;DHT22;12094;50.822;4.376;2024-03-07T08:28:16;7.10;99.90
23827;DHT22;12094;50.822;4.376;2024-03-07T08:30:46;7.00;99.90
23827;DHT22;12094;50.822;4.376;2024-03-07T08:33:13;7.00;99.90
23827;DHT22;12094;50.822;4.376;2024-03-07T08:35:42;7.10;99.90
23827;DHT22;12094;50.822;4.376;2024-03-07T08:38:10;7.20;99.90
23827;DHT22;12094;50.822;4.376;2024-03-07T08:40:39;7.20;99.90
23827;DHT22;12094;50.822;4.376;2024-03-07T08:43:08;7.10;99.90
23827;DHT22;12094;50.822;4.376;2024-03-07T08:45:35;7.00;99.90
23827;DHT22;12094;50.822;4.376;2024-03-07T08:48:05;7.00;99.90
23827;DHT22;12094;50.822;4.376;2024-03-07T08:50:35;7.20;99.90
23827;DHT22;12094;50.822;4.376;2024-03-07T08:53:06;7.20;99.90
23827;DHT22;12094;50.822;4.376;2024-03-07T08:55:35;7.20;99.90
23827;DHT22;12094;50.822;4.376;2024-03-07T08:58:05;7.30;99.90
23827;DHT22;12094;50.822;4.376;2024-03-07T09:00:36;7.40;99.90
23827;DHT22;12094;50.822;4.376;2024-03-07T09:03:07;7.20;99.90
23827;DHT22;12094;50.822;4.376;2024-03-07T09:05:43;7.30;99.90
23827;DHT22;12094;50.822;4.376;2024-03-07T09:08:12;7.50;99.90
23827;DHT22;12094;50.822;4.376;2024-03-07T09:10:41;7.70;99.90
23827;DHT22;12094;50.822;4.376;2024-03-07T09:13:13;7.90;99.90
23827;DHT22;12094;50.822;4.376;2024-03-07T09:15:41;8.00;99.90
23827;DHT22;12094;50.822;4.376;2024-03-07T09:18:09;8.00;99.90
23827;DHT22;12094;50.822;4.376;2024-03-07T09:20:38;8.00;99.90
23827;DHT22;12094;50.822;4.376;2024-03-07T09:23:07;8.00;99.90
23827;DHT22;12094;50.822;4.376;2024-03-07T09:25:40;8.00;99.90
23827;DHT22;12094;50.822;4.376;2024-03-07T09:28:12;8.00;99.90
23827;DHT22;12094;50.822;4.376;2024-03-07T09:30:43;8.20;99.90
23827;DHT22;12094;50.822;4.376;2024-03-07T09:33:13;8.20;99.90
23827;DHT22;12094;50.822;4.376;2024-03-07T09:35:45;8.50;99.90
23827;DHT22;12094;50.822;4.376;2024-03-07T09:38:13;8.50;99.90
23827;DHT22;12094;50.822;4.376;2024-03-07T09:40:47;8.60;99.90
23827;DHT22;12094;50.822;4.376;2024-03-07T09:43:17;8.50;99.90
23827;DHT22;12094;50.822;4.376;2024-03-07T09:45:49;8.50;99.90
23827;DHT22;12094;50.822;4.376;2024-03-07T09:48:21;8.60;99.90
23827;DHT22;12094;50.822;4.376;2024-03-07T09:50:55;8.40;99.90
23827;DHT22;12094;50.822;4.376;2024-03-07T09:53:28;8.50;99.90
23827;DHT22;12094;50.822;4.376;2024-03-07T09:55:58;8.70;99.90
23827;DHT22;12094;50.822;4.376;2024-03-07T09:58:29;8.80;99.90
23827;DHT22;12094;50.822;4.376;2024-03-07T10:03:43;8.80;99.90
23827;DHT22;12094;50.822;4.376;2024-03-07T10:08:44;8.70;99.90
23827;DHT22;12094;50.822;4.376;2024-03-07T10:11:11;8.70;99.90
23827;DHT22;12094;50.822;4.376;2024-03-07T10:13:40;8.70;99.90
23827;DHT22;12094;50.822;4.376;2024-03-07T10:16:08;8.80;99.90
23827;DHT22;12094;50.822;4.376;2024-03-07T10:18:43;9.00;99.90
23827;DHT22;12094;50.822;4.376;2024-03-07T10:25:06;9.20;99.90
23827;DHT22;12094;50.822;4.376;2024-03-07T10:27:35;9.30;99.90
23827;DHT22;12094;50.822;4.376;2024-03-07T10:30:03;9.30;99.90
23827;DHT22;12094;50.822;4.376;2024-03-07T10:32:31;9.20;99.90
23827;DHT22;12094;50.822;4.376;2024-03-07T10:34:59;9.20;99.90
23827;DHT22;12094;50.822;4.376;2024-03-07T10:37:26;9.10;99.90
23827;DHT22;12094;50.822;4.376;2024-03-07T10:39:53;9.20;99.90
23827;DHT22;12094;50.822;4.376;2024-03-07T10:42:21;9.40;99.90
23827;DHT22;12094;50.822;4.376;2024-03-07T10:44:51;9.40;99.90
23827;DHT22;12094;50.822;4.376;2024-03-07T10:47:33;9.30;99.90
23827;DHT22;12094;50.822;4.376;2024-03-07T10:50:13;9.40;99.90
23827;DHT22;12094;50.822;4.376;2024-03-07T10:52:48;9.60;99.90
23827;DHT22;12094;50.822;4.376;2024-03-07T11:01:10;10.10;99.90
23827;DHT22;12094;50.822;4.376;2024-03-07T11:03:39;10.20;99.90
23827;DHT22;12094;50.822;4.376;2024-03-07T11:06:08;10.60;99.90
23827;DHT22;12094;50.822;4.376;2024-03-07T11:08:38;10.70;99.90
23827;DHT22;12094;50.822;4.376;2024-03-07T11:11:08;11.20;99.90
23827;DHT22;12094;50.822;4.376;2024-03-07T11:13:36;11.90;99.90
23827;DHT22;12094;50.822;4.376;2024-03-07T11:16:07;12.40;99.90
23827;DHT22;12094;50.822;4.376;2024-03-07T11:18:37;13.00;99.90
23827;DHT22;12094;50.822;4.376;2024-03-07T11:21:05;13.20;99.90
23827;DHT22;12094;50.822;4.376;2024-03-07T11:23:38;13.10;99.90
23827;DHT22;12094;50.822;4.376;2024-03-07T11:29:03;12.70;99.90
23827;DHT22;12094;50.822;4.376;2024-03-07T11:31:53;12.60;99.90
23827;DHT22;12094;50.822;4.376;2024-03-07T11:34:23;12.50;99.90
23827;DHT22;12094;50.822;4.376;2024-03-07T11:36:59;12.30;99.90
23827;DHT22;12094;50.822;4.376;2024-03-07T11:39:40;12.30;99.90
23827;DHT22;12094;50.822;4.376;2024-03-07T11:44:54;12.60;99.90
23827;DHT22;12094;50.822;4.376;2024-03-07T11:47:26;12.10;99.90
23827;DHT22;12094;50.822;4.376;2024-03-07T11:49:58;11.70;99.90
23827;DHT22;12094;50.822;4.376;2024-03-07T11:52:27;11.50;99.90
23827;DHT22;12094;50.822;4.376;2024-03-07T11:54:55;11.70;99.90
23827;DHT22;12094;50.822;4.376;2024-03-07T11:57:31;12.00;99.90
23827;DHT22;12094;50.822;4.376;2024-03-07T12:00:02;12.00;99.90
23827;DHT22;12094;50.822;4.376;2024-03-07T12:02:41;12.10;99.90
23827;DHT22;12094;50.822;4.376;2024-03-07T12:05:12;12.30;99.90
23827;DHT22;12094;50.822;4.376;2024-03-07T12:07:44;12.80;99.90
23827;DHT22;12094;50.822;4.376;2024-03-07T12:10:12;13.30;99.90
23827;DHT22;12094;50.822;4.376;2024-03-07T12:12:41;13.20;99.90
23827;DHT22;12094;50.822;4.376;2024-03-07T12:15:10;13.10;99.90
23827;DHT22;12094;50.822;4.376;2024-03-07T12:17:49;13.40;99.90
23827;DHT22;12094;50.822;4.376;2024-03-07T12:20:17;13.70;99.90
23827;DHT22;12094;50.822;4.376;2024-03-07T12:23:17;13.70;99.90
23827;DHT22;12094;50.822;4.376;2024-03-07T12:25:46;13.70;99.90
23827;DHT22;12094;50.822;4.376;2024-03-07T12:28:14;14.00;99.90
23827;DHT22;12094;50.822;4.376;2024-03-07T12:30:48;14.50;99.90
23827;DHT22;12094;50.822;4.376;2024-03-07T12:33:18;15.30;99.90
23827;DHT22;12094;50.822;4.376;2024-03-07T12:35:47;15.60;99.90
23827;DHT22;12094;50.822;4.376;2024-03-07T12:38:18;16.00;99.90
23827;DHT22;12094;50.822;4.376;2024-03-07T12:40:45;16.70;99.90
23827;DHT22;12094;50.822;4.376;2024-03-07T12:43:19;16.20;99.90
23827;DHT22;12094;50.822;4.376;2024-03-07T12:45:50;15.50;99.90
23827;DHT22;12094;50.822;4.376;2024-03-07T12:48:17;15.70;99.90
23827;DHT22;12094;50.822;4.376;2024-03-07T12:50:46;15.70;99.90
23827;DHT22;12094;50.822;4.376;2024-03-07T12:53:16;16.00;99.90
23827;DHT22;12094;50.822;4.376;2024-03-07T12:55:45;16.00;99.90
23827;DHT22;12094;50.822;4.376;2024-03-07T12:58:11;16.30;99.90
23827;DHT22;12094;50.822;4.376;2024-03-07T13:00:42;16.40;99.90
23827;DHT22;12094;50.822;4.376;2024-03-07T13:03:10;16.30;99.90
23827;DHT22;12094;50.822;4.376;2024-03-07T13:05:46;16.30;99.90
23827;DHT22;12094;50.822;4.376;2024-03-07T13:08:13;16.40;99.90
23827;DHT22;12094;50.822;4.376;2024-03-07T13:10:44;16.70;99.90
23827;DHT22;12094;50.822;4.376;2024-03-07T13:13:17;17.10;99.90
23827;DHT22;12094;50.822;4.376;2024-03-07T13:15:46;17.50;99.90
23827;DHT22;12094;50.822;4.376;2024-03-07T13:18:18;17.30;99.70
23827;DHT22;12094;50.822;4.376;2024-03-07T13:20:54;17.50;99.30
23827;DHT22;12094;50.822;4.376;2024-03-07T13:23:28;17.70;99.30
23827;DHT22;12094;50.822;4.376;2024-03-07T13:25:55;18.20;97.60
23827;DHT22;12094;50.822;4.376;2024-03-07T13:28:22;17.70;97.20
23827;DHT22;12094;50.822;4.376;2024-03-07T13:30:56;16.90;98.10
23827;DHT22;12094;50.822;4.376;2024-03-07T13:33:24;16.50;98.40
23827;DHT22;12094;50.822;4.376;2024-03-07T13:35:52;16.40;98.70
23827;DHT22;12094;50.822;4.376;2024-03-07T13:38:20;15.20;99.70
23827;DHT22;12094;50.822;4.376;2024-03-07T13:40:51;14.70;99.90
23827;DHT22;12094;50.822;4.376;2024-03-07T13:43:19;14.10;99.90
23827;DHT22;12094;50.822;4.376;2024-03-07T13:45:46;13.70;99.90
23827;DHT22;12094;50.822;4.376;2024-03-07T13:48:15;13.60;99.90
23827;DHT22;12094;50.822;4.376;2024-03-07T13:50:47;13.30;99.90
23827;DHT22;12094;50.822;4.376;2024-03-07T14:01:41;11.90;99.90
23827;DHT22;12094;50.822;4.376;2024-03-07T14:12:28;11.70;99.90
23827;DHT22;12094;50.822;4.376;2024-03-07T14:20:54;11.80;99.90
23827;DHT22;12094;50.822;4.376;2024-03-07T14:25:56;12.10;99.90
23827;DHT22;12094;50.822;4.376;2024-03-07T14:31:08;11.70;99.90
23827;DHT22;12094;50.822;4.376;2024-03-07T14:33:50;11.50;99.90
23827;DHT22;12094;50.822;4.376;2024-03-07T14:36:31;11.60;99.90
23827;DHT22;12094;50.822;4.376;2024-03-07T14:39:01;11.70;99.90
23827;DHT22;12094;50.822;4.376;2024-03-07T14:41:48;11.50;99.90
23827;DHT22;12094;50.822;4.376;2024-03-07T14:44:17;11.70;99.90
23827;DHT22;12094;50.822;4.376;2024-03-07T14:46:47;11.60;99.90
23827;DHT22;12094;50.822;4.376;2024-03-07T14:49:17;11.50;99.90
23827;DHT22;12094;50.822;4.376;2024-03-07T14:51:45;11.50;99.90
23827;DHT22;12094;50.822;4.376;2024-03-07T14:54:25;11.50;99.90
23827;DHT22;12094;50.822;4.376;2024-03-07T14:56:54;11.30;99.90
23827;DHT22;12094;50.822;4.376;2024-03-07T14:59:21;11.30;99.90
23827;DHT22;12094;50.822;4.376;2024-03-07T15:01:49;11.30;99.90
23827;DHT22;12094;50.822;4.376;2024-03-07T15:04:19;11.20;99.90
23827;DHT22;12094;50.822;4.376;2024-03-07T15:06:49;11.30;99.90
23827;DHT22;12094;50.822;4.376;2024-03-07T15:16:14;11.30;99.90
23827;DHT22;12094;50.822;4.376;2024-03-07T15:19:00;11.10;99.90
23827;DHT22;12094;50.822;4.376;2024-03-07T15:21:32;11.20;99.90
23827;DHT22;12094;50.822;4.376;2024-03-07T15:23:59;11.30;99.90
23827;DHT22;12094;50.822;4.376;2024-03-07T15:26:27;11.30;99.90
23827;DHT22;12094;50.822;4.376;2024-03-07T15:28:56;11.30;99.90
23827;DHT22;12094;50.822;4.376;2024-03-07T15:31:25;11.30;99.90
23827;DHT22;12094;50.822;4.376;2024-03-07T15:33:53;11.30;99.90
23827;DHT22;12094;50.822;4.376;2024-03-07T15:36:21;11.30;99.90
23827;DHT22;12094;50.822;4.376;2024-03-07T15:38:49;11.20;99.90
23827;DHT22;12094;50.822;4.376;2024-03-07T15:41:17;11.10;99.90
23827;DHT22;12094;50.822;4.376;2024-03-07T15:43:45;11.10;99.90
23827;DHT22;12094;50.822;4.376;2024-03-07T15:46:13;11.10;99.90
23827;DHT22;12094;50.822;4.376;2024-03-07T15:48:45;11.20;99.90
23827;DHT22;12094;50.822;4.376;2024-03-07T15:51:19;11.20;99.90
23827;DHT22;12094;50.822;4.376;2024-03-07T15:53:48;11.10;99.90
23827;DHT22;12094;50.822;4.376;2024-03-07T15:56:19;11.00;99.90
23827;DHT22;12094;50.822;4.376;2024-03-07T15:58:46;10.90;99.90
23827;DHT22;12094;50.822;4.376;2024-03-07T16:01:16;11.00;99.90
23827;DHT22;12094;50.822;4.376;2024-03-07T16:03:43;11.00;99.90
23827;DHT22;12094;50.822;4.376;2024-03-07T16:06:13;11.00;99.90
23827;DHT22;12094;50.822;4.376;2024-03-07T16:08:43;11.00;99.90
23827;DHT22;12094;50.822;4.376;2024-03-07T16:11:18;11.00;99.90
23827;DHT22;12094;50.822;4.376;2024-03-07T16:13:46;11.00;99.90
23827;DHT22;12094;50.822;4.376;2024-03-07T16:16:13;11.00;99.90
23827;DHT22;12094;50.822;4.376;2024-03-07T16:18:43;11.00;99.90
23827;DHT22;12094;50.822;4.376;2024-03-07T16:21:12;11.00;99.90
23827;DHT22;12094;50.822;4.376;2024-03-07T16:23:39;10.90;99.90
23827;DHT22;12094;50.822;4.376;2024-03-07T16:26:09;10.90;99.90
23827;DHT22;12094;50.822;4.376;2024-03-07T16:28:38;10.90;99.90
23827;DHT22;12094;50.822;4.376;2024-03-07T16:31:05;10.80;99.90
23827;DHT22;12094;50.822;4.376;2024-03-07T16:33:35;10.70;99.90
23827;DHT22;12094;50.822;4.376;2024-03-07T16:36:03;10.80;99.90
23827;DHT22;12094;50.822;4.376;2024-03-07T16:38:33;10.80;99.90
23827;DHT22;12094;50.822;4.376;2024-03-07T16:41:01;10.80;99.90
23827;DHT22;12094;50.822;4.376;2024-03-07T16:43:29;10.80;99.90
23827;DHT22;12094;50.822;4.376;2024-03-07T16:45:56;10.80;99.90
23827;DHT22;12094;50.822;4.376;2024-03-07T16:50:58;11.00;99.90
23827;DHT22;12094;50.822;4.376;2024-03-07T16:53:25;11.00;99.90
23827;DHT22;12094;50.822;4.376;2024-03-07T16:55:53;10.90;99.90
23827;DHT22;12094;50.822;4.376;2024-03-07T16:58:21;10.90;99.90
23827;DHT22;12094;50.822;4.376;2024-03-07T17:00:49;10.90;99.90
23827;DHT22;12094;50.822;4.376;2024-03-07T17:03:20;11.00;99.90
23827;DHT22;12094;50.822;4.376;2024-03-07T17:05:47;11.00;99.90
23827;DHT22;12094;50.822;4.376;2024-03-07T17:08:15;11.00;99.90
23827;DHT22;12094;50.822;4.376;2024-03-07T17:10:46;10.90;99.90
23827;DHT22;12094;50.822;4.376;2024-03-07T17:13:13;10.90;99.90
23827;DHT22;12094;50.822;4.376;2024-03-07T17:15:43;10.90;99.90
23827;DHT22;12094;50.822;4.376;2024-03-07T17:18:12;11.00;99.90
23827;DHT22;12094;50.822;4.376;2024-03-07T17:20:41;10.90;99.90
23827;DHT22;12094;50.822;4.376;2024-03-07T17:23:16;10.80;99.90
23827;DHT22;12094;50.822;4.376;2024-03-07T17:25:45;10.80;99.90